createdAt,value
2023-04-08T06:18:52.914Z,88.10
2023-04-08T06:21:19.862Z,89.95
2023-04-08T06:23:46.632Z,89.09
2023-04-08T06:26:13.724Z,89.93
2023-04-08T06:28:40.643Z,89.25
2023-04-08T06:31:07.477Z,90.67
2023-04-08T06:33:34.344Z,89.33
2023-04-08T06:36:05.762Z,89.69
2023-04-08T06:38:32.693Z,91.33
2023-04-08T06:41:03.953Z,89.81
2023-04-08T06:43:31.346Z,89.33
2023-04-08T06:45:58.340Z,90.02
2023-04-08T06:48:30.856Z,89.72
2023-04-08T06:50:58.790Z,89.48
2023-04-08T06:53:26.571Z,88.91
2023-04-08T06:55:53.424Z,89.34
2023-04-08T06:58:20.292Z,90.13
2023-04-08T07:00:47.507Z,89.16
2023-04-08T07:03:14.443Z,87.95
2023-04-08T07:05:42.406Z,88.65
2023-04-08T07:08:09.490Z,89.77
2023-04-08T07:10:37.129Z,89.26
2023-04-08T07:13:04.214Z,88.84
2023-04-08T07:15:31.336Z,88.33
2023-04-08T07:17:59.015Z,89.02
2023-04-08T07:20:26.394Z,88.77
2023-04-08T07:22:53.401Z,88.71
2023-04-08T07:25:20.197Z,89.20
2023-04-08T07:27:47.134Z,89.11
2023-04-08T07:30:13.975Z,89.29
2023-04-08T07:32:41.244Z,88.36
2023-04-08T07:35:08.330Z,88.49
2023-04-08T07:37:35.180Z,88.71
2023-04-08T07:40:02.057Z,87.83
2023-04-08T07:42:29.247Z,88.37
2023-04-08T07:44:56.145Z,87.63
2023-04-08T07:47:23.234Z,87.32
2023-04-08T07:49:50.380Z,87.25
2023-04-08T07:52:17.247Z,86.70
2023-04-08T07:54:44.059Z,86.41
2023-04-08T07:57:10.958Z,86.29
2023-04-08T07:59:37.790Z,85.41
2023-04-08T08:02:04.756Z,85.30
2023-04-08T08:04:32.080Z,84.90
2023-04-08T08:06:59.107Z,84.80
2023-04-08T08:09:26.087Z,84.65
2023-04-08T08:11:52.906Z,84.76
2023-04-08T08:14:19.894Z,83.80
2023-04-08T08:16:46.787Z,82.76
2023-04-08T08:19:14.661Z,83.43
2023-04-08T08:21:41.707Z,83.77
2023-04-08T08:24:08.615Z,83.73
2023-04-08T08:26:37.255Z,83.01
2023-04-08T08:29:05.035Z,82.33
2023-04-08T08:31:31.882Z,82.75
2023-04-08T08:33:58.741Z,82.85
2023-04-08T08:36:25.560Z,82.14
2023-04-08T08:38:54.281Z,81.87
2023-04-08T08:41:21.913Z,81.92
2023-04-08T08:43:49.352Z,81.76
2023-04-08T08:46:18.895Z,81.78
2023-04-08T08:48:46.451Z,81.12
2023-04-08T08:51:14.019Z,81.14
2023-04-08T08:53:45.594Z,80.70
2023-04-08T08:56:18.228Z,80.09
2023-04-08T08:58:47.821Z,80.83
2023-04-08T09:01:41.544Z,80.52
2023-04-08T09:04:20.121Z,79.68
2023-04-08T09:06:50.366Z,79.46
2023-04-08T09:09:18.004Z,80.05
2023-04-08T09:11:46.591Z,78.98
2023-04-08T09:14:22.958Z,78.90
2023-04-08T09:16:50.928Z,78.61
2023-04-08T09:19:17.842Z,78.24
2023-04-08T09:21:45.125Z,78.51
2023-04-08T09:24:31.318Z,78.01
2023-04-08T09:26:58.148Z,77.60
2023-04-08T09:29:28.163Z,76.80
2023-04-08T09:32:01.809Z,76.62
2023-04-08T09:34:29.898Z,75.56
2023-04-08T09:36:56.970Z,75.00
2023-04-08T09:39:24.317Z,74.49
2023-04-08T09:41:52.144Z,74.37
2023-04-08T09:44:21.363Z,74.67
2023-04-08T09:46:52.803Z,73.90
2023-04-08T09:49:19.648Z,73.94
2023-04-08T09:52:09.576Z,73.53
2023-04-08T09:55:06.850Z,74.43
2023-04-08T09:57:43.451Z,74.14
2023-04-08T10:00:13.551Z,73.89
2023-04-08T10:02:54.252Z,73.34
2023-04-08T10:05:21.608Z,74.08
2023-04-08T10:07:49.289Z,73.41
2023-04-08T10:10:16.635Z,72.90
2023-04-08T10:12:43.686Z,73.37
2023-04-08T10:15:24.008Z,73.23
2023-04-08T10:17:52.023Z,72.22
2023-04-08T10:20:36.658Z,72.89
2023-04-08T10:23:07.752Z,72.12
2023-04-08T10:25:38.636Z,72.25
2023-04-08T10:28:11.451Z,71.68
2023-04-08T10:30:55.589Z,72.12
2023-04-08T10:33:26.149Z,70.67
2023-04-08T10:35:59.794Z,70.86
2023-04-08T10:38:27.441Z,70.45
2023-04-08T10:40:54.859Z,70.25
2023-04-08T10:43:22.459Z,69.92
2023-04-08T10:45:51.617Z,70.15
2023-04-08T10:48:23.206Z,69.81
2023-04-08T10:51:02.298Z,68.86
2023-04-08T10:53:33.944Z,69.95
2023-04-08T10:56:08.435Z,69.51
2023-04-08T10:58:37.006Z,69.83
2023-04-08T11:01:06.242Z,69.66
2023-04-08T11:03:37.640Z,70.10
2023-04-08T11:06:04.990Z,69.74
2023-04-08T11:08:32.962Z,70.34
2023-04-08T11:11:01.910Z,70.00
2023-04-08T11:13:29.249Z,70.04
2023-04-08T11:16:00.301Z,70.25
2023-04-08T11:18:27.505Z,70.76
2023-04-08T11:20:55.081Z,70.97
2023-04-08T11:23:23.126Z,70.72
2023-04-08T11:25:50.159Z,70.39
2023-04-08T11:28:17.217Z,70.29
2023-04-08T11:30:44.301Z,71.05
2023-04-08T11:33:11.452Z,71.17
2023-04-08T11:35:42.528Z,70.38
2023-04-08T11:38:10.508Z,70.40
2023-04-08T11:40:37.585Z,70.38
2023-04-08T11:43:11.829Z,69.61
2023-04-08T11:45:40.474Z,69.27
2023-04-08T11:48:15.471Z,68.98
2023-04-08T11:50:43.384Z,68.95
2023-04-08T11:53:25.759Z,68.46
2023-04-08T11:55:52.651Z,68.62
2023-04-08T11:58:20.028Z,68.29
2023-04-08T12:00:46.940Z,68.56
2023-04-08T12:03:13.976Z,67.39
2023-04-08T12:05:41.038Z,66.29
2023-04-08T12:08:07.874Z,65.90
2023-04-08T12:10:34.748Z,66.41
2023-04-08T12:13:01.668Z,65.97
2023-04-08T12:15:28.576Z,65.17
2023-04-08T12:17:56.131Z,64.90
2023-04-08T12:20:23.345Z,64.35
2023-04-08T12:22:50.176Z,64.94
2023-04-08T12:25:17.027Z,65.23
2023-04-08T12:27:43.837Z,65.97
2023-04-08T12:30:11.284Z,64.68
2023-04-08T12:32:38.260Z,64.05
2023-04-08T12:35:05.488Z,64.06
2023-04-08T12:37:33.572Z,64.43
2023-04-08T12:40:00.497Z,64.69
2023-04-08T12:42:28.134Z,63.34
2023-04-08T12:44:55.055Z,63.16
2023-04-08T12:47:23.639Z,63.56
2023-04-08T12:49:51.836Z,63.56
2023-04-08T12:52:18.996Z,63.53
2023-04-08T12:54:45.976Z,64.17
2023-04-08T12:57:13.069Z,63.33
2023-04-08T12:59:40.304Z,63.68
2023-04-08T13:02:08.240Z,63.67
2023-04-08T13:04:35.424Z,63.47
2023-04-08T13:07:02.567Z,63.92
2023-04-08T13:09:30.846Z,63.40
2023-04-08T13:11:58.554Z,63.78
2023-04-08T13:14:25.721Z,63.52
2023-04-08T13:16:52.741Z,63.28
2023-04-08T13:19:19.669Z,62.76
2023-04-08T13:21:46.599Z,63.89
2023-04-08T13:24:13.461Z,62.94
2023-04-08T13:26:40.625Z,63.65
2023-04-08T13:29:07.531Z,64.20
2023-04-08T13:31:34.533Z,64.19
2023-04-08T13:34:01.414Z,64.31
2023-04-08T13:36:29.251Z,64.54
2023-04-08T13:38:56.857Z,63.31
2023-04-08T13:41:23.767Z,63.36
2023-04-08T13:43:50.631Z,63.29
2023-04-08T13:46:18.426Z,63.10
2023-04-08T13:48:46.157Z,63.45
2023-04-08T13:51:13.810Z,63.53
2023-04-08T13:53:40.980Z,63.43
2023-04-08T13:56:08.122Z,63.56
2023-04-08T13:58:34.981Z,64.01
2023-04-08T14:01:02.059Z,64.00
2023-04-08T14:03:28.949Z,63.00
2023-04-08T14:05:55.969Z,63.02
2023-04-08T14:08:25.913Z,63.38
2023-04-08T14:10:53.777Z,63.28
2023-04-08T14:13:20.990Z,62.96
2023-04-08T14:15:48.480Z,62.65
2023-04-08T14:18:18.093Z,62.82
2023-04-08T14:20:44.940Z,62.35
2023-04-08T14:23:13.733Z,62.14
2023-04-08T14:25:41.042Z,62.68
2023-04-08T14:28:08.280Z,62.74
2023-04-08T14:30:36.404Z,62.04
2023-04-08T14:33:04.842Z,62.15
2023-04-08T14:35:31.773Z,62.94
2023-04-08T14:37:58.886Z,62.68
2023-04-08T14:40:25.708Z,61.88
2023-04-08T14:42:52.632Z,61.83
2023-04-08T14:45:19.614Z,62.13
2023-04-08T14:47:46.894Z,62.59
2023-04-08T14:50:13.754Z,61.87
2023-04-08T14:52:40.732Z,61.24
2023-04-08T14:55:07.819Z,61.43
2023-04-08T14:57:34.682Z,61.29
2023-04-08T15:00:02.034Z,61.76
2023-04-08T15:02:28.991Z,60.78
2023-04-08T15:04:56.291Z,61.67
2023-04-08T15:07:23.876Z,61.48
2023-04-08T15:09:50.697Z,61.24
2023-04-08T15:12:18.166Z,61.16
2023-04-08T15:14:44.992Z,61.21
2023-04-08T15:17:11.862Z,61.86
2023-04-08T15:19:38.735Z,62.19
2023-04-08T15:22:05.540Z,62.65
2023-04-08T15:24:32.410Z,62.82
2023-04-08T15:26:59.269Z,63.05
2023-04-08T15:29:26.333Z,62.99
2023-04-08T15:31:53.371Z,63.34
2023-04-08T15:34:20.241Z,63.62
2023-04-08T15:36:47.758Z,63.05
2023-04-08T15:39:15.013Z,63.16
2023-04-08T15:41:41.857Z,63.74
2023-04-08T15:44:08.727Z,63.49
2023-04-08T15:46:37.453Z,63.56
2023-04-08T15:49:04.858Z,63.84
2023-04-08T15:51:33.135Z,64.39
2023-04-08T15:53:59.977Z,63.47
2023-04-08T15:56:28.735Z,64.05
2023-04-08T15:58:59.085Z,63.65
2023-04-08T16:01:25.965Z,64.14
2023-04-08T16:03:52.965Z,63.84
2023-04-08T16:06:19.899Z,63.71
2023-04-08T16:08:47.459Z,64.13
2023-04-08T16:11:14.347Z,63.91
2023-04-08T16:13:42.686Z,64.42
2023-04-08T16:16:09.858Z,63.87
2023-04-08T16:18:36.715Z,63.45
2023-04-08T16:21:06.835Z,64.08
2023-04-08T16:23:35.712Z,63.37
2023-04-08T16:26:02.607Z,61.82
2023-04-08T16:28:29.536Z,58.41
2023-04-08T16:30:56.339Z,57.95
2023-04-08T16:33:29.891Z,58.78
2023-04-08T16:35:57.324Z,59.88
2023-04-08T16:38:25.195Z,58.61
2023-04-08T16:40:52.465Z,58.18
2023-04-08T16:43:19.473Z,57.74
2023-04-08T16:45:46.657Z,57.07
2023-04-08T16:48:13.770Z,57.39
2023-04-08T16:50:41.090Z,57.85
2023-04-08T16:53:08.000Z,58.38
2023-04-08T16:55:38.072Z,57.92
2023-04-08T16:58:04.951Z,57.01
2023-04-08T17:00:31.829Z,57.98
2023-04-08T17:02:59.603Z,58.25
2023-04-08T17:05:27.451Z,58.53
2023-04-08T17:07:56.645Z,58.53
2023-04-08T17:10:23.718Z,58.24
2023-04-08T17:12:50.634Z,57.33
2023-04-08T17:15:17.498Z,57.12
2023-04-08T17:17:44.327Z,57.18
2023-04-08T17:20:12.188Z,57.72
2023-04-08T17:22:38.999Z,57.70
2023-04-08T17:25:06.826Z,58.20
2023-04-08T17:27:33.887Z,58.18
2023-04-08T17:30:00.671Z,58.02
2023-04-08T17:32:27.762Z,57.69
2023-04-08T17:34:54.726Z,58.43
2023-04-08T17:37:21.718Z,58.28
2023-04-08T17:39:48.495Z,58.80
2023-04-08T17:42:15.297Z,58.50
2023-04-08T17:44:42.812Z,58.83
2023-04-08T17:47:09.676Z,58.31
2023-04-08T17:49:36.515Z,58.80
2023-04-08T17:52:03.602Z,58.98
2023-04-08T17:54:33.198Z,58.99
2023-04-08T17:57:00.155Z,59.17
2023-04-08T17:59:27.172Z,59.89
2023-04-08T18:01:54.221Z,60.98
2023-04-08T18:04:21.654Z,61.56
2023-04-08T18:06:48.575Z,62.65
2023-04-08T18:09:15.423Z,62.47
2023-04-08T18:11:42.236Z,63.39
2023-04-08T18:14:09.044Z,62.71
2023-04-08T18:16:36.091Z,63.43
2023-04-08T18:19:03.351Z,62.98
2023-04-08T18:21:30.132Z,63.78
2023-04-08T18:23:56.989Z,63.93
2023-04-08T18:26:24.089Z,63.82
2023-04-08T18:28:50.867Z,65.00
2023-04-08T18:31:17.801Z,65.84
2023-04-08T18:33:44.705Z,66.72
2023-04-08T18:36:12.804Z,67.61
2023-04-08T18:38:41.200Z,68.58
2023-04-08T18:41:08.547Z,68.49
2023-04-08T18:43:35.448Z,68.54
2023-04-08T18:46:02.385Z,67.95
2023-04-08T18:48:29.745Z,69.28
2023-04-08T18:50:56.885Z,69.99
2023-04-08T18:53:23.661Z,71.42
2023-04-08T18:55:51.420Z,71.53
2023-04-08T18:58:18.398Z,72.89
2023-04-08T19:00:45.290Z,73.56
2023-04-08T19:03:12.385Z,72.84
2023-04-08T19:05:39.285Z,73.99
2023-04-08T19:08:06.422Z,73.71
2023-04-08T19:10:34.179Z,72.82
2023-04-08T19:13:02.076Z,72.68
2023-04-08T19:15:29.242Z,72.68
2023-04-08T19:17:56.697Z,74.40
2023-04-08T19:20:23.692Z,75.64
2023-04-08T19:22:50.583Z,76.43
2023-04-08T19:25:17.890Z,75.97
2023-04-08T19:27:46.581Z,74.20
2023-04-08T19:30:13.865Z,74.52
2023-04-08T19:32:40.834Z,76.26
2023-04-08T19:35:08.204Z,77.60
2023-04-08T19:37:35.119Z,77.25
2023-04-08T19:40:01.943Z,77.13
2023-04-08T19:42:29.329Z,76.50
2023-04-08T19:44:56.445Z,75.38
2023-04-08T19:47:23.564Z,75.16
2023-04-08T19:49:50.436Z,77.71
2023-04-08T19:52:17.370Z,77.71
2023-04-08T19:54:44.266Z,78.61
2023-04-08T19:57:11.994Z,80.07
